• Join FlightAware (Why Join?)
  • Login
  • US Flag 
12:47AM EDT


 

Airport Tracker/Info


-or-


 

Live Flight TrackerFlight Track Log ✈ DAL1937 ✈ 13-May-2013 ✈ KBWI - KDTW

Flight Track Log - Related Links

Times and Time Zones

All times are in EDT time to prevent confusion due to time zone crossing. See the DAL1937 flight status page for this flight to view local times or setup timezone preferences in your user account.

Time Position Orientation Groundspeed Altitude Reporting Facility
EDT Latitude Longitude Course Direction KTS MPH feet Rate Location/Type
06:14AM 39.1833 -76.7667 290° West 193 222 3,300  Level Potomac TRACON
06:15AM 39.2000 -76.8500 284° West 235 270 7,000 3,480 Climbing Potomac TRACON
06:16AM 39.2023 -77.1512 339° North  Level FlightAware Approximate
06:16AM 39.2167 -76.9333 284° West 255 293 10,300  Level Potomac TRACON
06:17AM 39.2831 -77.2163 322° Northwest  Level FlightAware Approximate
06:18AM 39.3591 -77.2924 322° Northwest  Level FlightAware Approximate
06:18AM 39.2747 -77.1197 292° West 302 348 14,600  Level Washington Center
06:19AM 39.3946 -77.4061 290° West  Level FlightAware Approximate
06:19AM 39.3150 -77.2281 296° West 328 377 17,600  Level Washington Center
06:20AM 39.3550 -77.3417 295° West 339 390 19,600 2,040 Climbing Washington Center
06:21AM 39.3992 -77.4636 295° West 356 410 21,800 2,160 Climbing Washington Center
06:22AM 39.4408 -77.5856 294° West 366 421 24,000 1,920 Climbing Washington Center
06:23AM 39.4825 -77.7078 294° West 371 427 25,700 1,440 Climbing Washington Center
06:24AM 39.5283 -77.8356 295° West 382 440 27,000 1,200 Climbing Washington Center
06:26AM 39.6219 -78.1386 292° West 395 455 29,800 2,100 Climbing Cleveland Center
06:27AM 39.6622 -78.2719 291° West 395 455 34,000 1,560 Climbing Cleveland Center
06:28AM 39.7022 -78.4003 292° West 390 449 33,000 -120 Descending Cleveland Center
06:29AM 39.7381 -78.5286 290° West 385 443 33,800 480 Climbing Cleveland Center
06:30AM 39.7797 -78.6544 293° West 380 437 34,000 60 Climbing Cleveland Center
06:31AM 39.8297 -78.7772 298° West 385 443 34,000  Level Cleveland Center
06:32AM 39.8858 -78.8947 302° West 385 443 34,000  Level Cleveland Center
06:33AM 39.9525 -79.0314 303° West 395 455 34,000  Level Cleveland Center
06:34AM 40.0125 -79.1544 303° West 400 460 34,000  Level Cleveland Center
06:35AM 40.0594 -79.2675 299° West 400 460 34,000  Level Cleveland Center
06:36AM 40.1278 -79.4047 303° West 400 460 34,000 -60 Level Cleveland Center
06:37AM 40.1875 -79.5314 302° West 400 460 33,900 -540 Descending Cleveland Center
06:38AM 40.2469 -79.6583 302° West 400 460 33,000 -900 Descending Cleveland Center
06:39AM 40.3042 -79.7853 301° West 400 460 32,100 -960 Descending Cleveland Center
06:40AM 40.3633 -79.9128 301° West 400 460 31,100 -960 Descending Cleveland Center
06:41AM 40.4119 -80.0269 299° West 393 452 30,200 -600 Descending Cleveland Center
06:42AM 40.4728 -80.1544 302° West 398 458 30,000 -120 Descending Cleveland Center
06:43AM 40.5317 -80.2825 301° West 403 464 30,000  Level Cleveland Center
06:44AM 40.5903 -80.4081 302° West 403 464 30,000  Level Cleveland Center
06:45AM 40.6531 -80.5558 299° West 408 470 30,000  Level Cleveland Center
06:46AM 40.7050 -80.6736 300° West 413 475 30,000  Level Cleveland Center
06:47AM 40.7675 -80.8025 303° West 413 475 30,000  Level Cleveland Center
06:48AM 40.8253 -80.9342 300° West 413 475 30,000  Level Cleveland Center
06:49AM 40.8811 -81.0692 299° West 424 488 30,000 -180 Level Cleveland Center
06:50AM 40.9431 -81.2017 302° West 424 488 29,700 -600 Descending Cleveland Center
06:51AM 40.9986 -81.3342 299° West 418 481 28,800 -1,020 Descending Cleveland Center
06:52AM 41.0622 -81.4781 300° West 418 481 27,700 -1,080 Descending Cleveland Center
06:53AM 41.1175 -81.6083 299° West 418 481 26,700 -960 Descending Cleveland Center
06:54AM 41.1706 -81.7222 302° West 418 481 25,800 -960 Descending Cleveland Center
06:55AM 41.2275 -81.8531 300° West 418 481 24,800 -960 Descending Cleveland Center
06:56AM 41.2803 -81.9783 299° West 407 468 23,900 -960 Descending Cleveland Center
06:57AM 41.3369 -82.1042 301° West 397 457 22,900 -1,020 Descending Cleveland Center
06:58AM 41.3958 -82.2272 303° West 397 457 21,900 -960 Descending Cleveland Center
06:59AM 41.4608 -82.3369 308° West 391 450 21,000 -1,080 Descending Cleveland Center
07:00AM 41.5361 -82.4556 310° West 382 440 19,900 -1,140 Descending Cleveland Center
07:01AM 41.5583 -82.4978 305° West 379 436 19,500 -1,740 Descending Cleveland Center
07:01AM 41.5906 -82.5544 307° West 381 438 18,100 -2,460 Descending Cleveland Center
07:02AM 41.6211 -82.6025 310° West 368 423 17,000 -2,940 Descending Cleveland Center
07:02AM 41.6575 -82.6675 307° West 373 429 15,200 -2,940 Descending Cleveland Center
07:03AM 41.6839 -82.7075 311° West 351 404 14,100 -2,940 Descending Cleveland Center
07:03AM 41.7181 -82.7697 306° West 359 413 12,300 -1,980 Descending Cleveland Center
07:04AM 41.7425 -82.8039 314° West 338 389 12,100 -300 Descending Cleveland Center
07:04AM 41.7853 -82.8528 320° Northwest 343 395 12,000 -120 Descending Cleveland Center
07:05AM 41.8178 -82.8931 317° Northwest 330 380 12,000  Level Cleveland Center
07:05AM 41.8525 -82.9333 319° Northwest 330 380 12,000  Level Cleveland Center
07:06AM 41.8850 -82.9733 318° Northwest 332 382 12,000  Level Cleveland Center
07:06AM 41.9236 -83.0194 318° Northwest 330 380 12,000  Level Cleveland Center
07:07AM 41.9603 -83.0628 319° Northwest 332 382 12,000  Level Cleveland Center
07:07AM 41.9886 -83.0975 318° Northwest 330 380 12,000  Level Cleveland Center
07:08AM 42.0192 -83.1350 318° Northwest 274 315 12,000 -120 Level Cleveland Center
07:08AM 42.0414 -83.1611 319° Northwest 301 346 11,900 -660 Descending Cleveland Center
07:09AM 42.0617 -83.1869 317° Northwest 221 254 11,400 -900 Descending Cleveland Center
07:09AM 42.0861 -83.2161 318° Northwest 251 289 11,000 -420 Descending Cleveland Center
07:10AM 42.1106 -83.2450 319° Northwest 210 242 11,000 -900 Level Cleveland Center
07:11AM 42.1669 -83.2333 North 226 260 9,700 -1,440 Descending Cleveland Center
07:12AM 42.2139 -83.1878 36° Northeast 207 238 8,200 -840 Descending Cleveland Center
07:13AM 42.2672 -83.1364 35° Northeast 204 235 8,000 -480 Descending Cleveland Center
07:14AM 42.3178 -83.1078 23° Northeast 197 227 7,200 -600 Descending Cleveland Center
07:15AM 42.3531 -83.1231 342° North 159 183 6,800 -1,140 Descending Cleveland Center
07:16AM 42.3558 -83.1822 274° West 174 200 4,900 -1,680 Descending Cleveland Center
07:17AM 42.3294 -83.2403 238° Southwest 170 196 3,400 -1,500 Descending Cleveland Center